• Join FlightAware (Why Join?)
  • Login
  • US Flag 
03:34PM EDT


 

Airport Tracker/Info


-or-


 

Live Flight TrackerFlight Track Log ✈ C-GCFB ✈ 19-Jul-2013 ✈ CZJN - CYWG

Flight Track Log - Related Links

Times and Time Zones

All times are in EDT time to prevent confusion due to time zone crossing. See the C-GCFB flight status page for this flight to view local times or setup timezone preferences in your user account.

Time Position Orientation Groundspeed Altitude Reporting Facility
EDT Latitude Longitude Course Direction KTS MPH feet Rate Location/Type
09:59AM 51.8833 -100.7667 131° Southeast 240 276 9,500  Level Winnipeg Center
10:00AM 51.8333 -100.6833 134° Southeast 230 265 10,900 1,200 Climbing Winnipeg Center
10:01AM 51.8000 -100.6000 123° Southeast 230 265 12,000 1,080 Climbing Winnipeg Center
10:02AM 51.7500 -100.5333 140° Southeast 230 265 13,100 1,020 Climbing Winnipeg Center
10:03AM 51.7000 -100.4500 134° Southeast 230 265 14,100 780 Climbing Winnipeg Center
10:04AM 51.5838 -100.2092 131° Southeast  Level FlightAware Approximate
10:04AM 51.6667 -100.3667 123° Southeast 240 276 14,700  Level Winnipeg Center
10:05AM 51.6167 -100.2833 134° Southeast 250 288 15,000 120 Climbing Winnipeg Center
10:06AM 51.5833 -100.2000 123° Southeast 270 311 15,000  Level Winnipeg Center
10:07AM 51.5167 -100.0833 133° Southeast 270 311 15,000  Level Winnipeg Center
10:08AM 51.4667 -100.0000 134° Southeast 280 322 15,000  Level Winnipeg Center
10:09AM 51.4167 -99.8833 124° Southeast 280 322 15,000  Level Winnipeg Center
10:10AM 51.3667 -99.8000 134° Southeast 280 322 15,000  Level Winnipeg Center
10:11AM 51.3167 -99.7000 129° Southeast 280 322 15,000  Level Winnipeg Center
10:12AM 51.2667 -99.6167 134° Southeast 280 322 15,000  Level Winnipeg Center
10:13AM 51.2000 -99.5333 142° Southeast 280 322 15,000  Level Winnipeg Center
10:14AM 51.1667 -99.4167 114° Southeast 280 322 15,000  Level Winnipeg Center
10:15AM 51.1167 -99.3333 134° Southeast 280 322 15,000  Level Winnipeg Center
10:16AM 51.0667 -99.2333 128° Southeast 280 322 15,000  Level Winnipeg Center
10:17AM 51.0000 -99.1500 142° Southeast 280 322 15,000  Level Winnipeg Center
10:18AM 50.9500 -99.0667 134° Southeast 280 322 15,000  Level Winnipeg Center
10:19AM 50.9000 -98.9500 124° Southeast 280 322 15,000  Level Winnipeg Center
10:20AM 50.8500 -98.8667 134° Southeast 280 322 15,000  Level Winnipeg Center
10:21AM 50.8000 -98.8000 140° Southeast 280 322 15,000  Level Winnipeg Center
10:22AM 50.7333 -98.6833 132° Southeast 280 322 15,000  Level Winnipeg Center
10:23AM 50.6833 -98.6000 133° Southeast 280 322 15,100  Climbing Winnipeg Center
10:24AM 50.6333 -98.5000 128° Southeast 280 322 15,000 -60 Descending Winnipeg Center
10:25AM 50.5833 -98.4167 133° Southeast 280 322 15,000 -300 Level Winnipeg Center
10:26AM 50.5333 -98.3167 128° Southeast 290 334 14,400 -780 Descending Winnipeg Center
10:27AM 50.4667 -98.2333 141° Southeast 280 322 13,500 -1,080 Descending Winnipeg Center
10:28AM 50.4333 -98.1500 122° Southeast 280 322 12,300 -1,260 Descending Winnipeg Center
10:29AM 50.3833 -98.0333 124° Southeast 280 322 11,000 -1,260 Descending Winnipeg Center
10:30AM 50.3333 -97.9667 140° Southeast 270 311 9,800 -1,200 Descending Winnipeg Center
10:31AM 50.2833 -97.8833 133° Southeast 260 299 8,700 -1,140 Descending Winnipeg Center
10:32AM 50.2333 -97.8000 133° Southeast 240 276 7,600 -1,080 Descending Winnipeg Center
10:33AM 50.1833 -97.7167 133° Southeast 230 265 6,600 -960 Descending Winnipeg Center
10:34AM 50.1333 -97.6667 147° Southeast 220 253 5,700 -1,020 Descending Winnipeg Center
10:35AM 50.1000 -97.5833 122° Southeast 220 253 4,600 -960 Descending Winnipeg Center
10:36AM 50.0500 -97.5333 147° Southeast 210 242 3,800 -720 Descending Winnipeg Center
10:37AM 50.0167 -97.4667 128° Southeast 210 242 3,200 -600 Descending Winnipeg Center
10:38AM 49.9667 -97.4000 139° Southeast 210 242 2,700 -420 Descending Winnipeg Center
10:39AM 49.9333 -97.3333 128° Southeast 200 230 2,400 -360 Descending Winnipeg Center
10:40AM 49.9000 -97.2833 136° Southeast 190 219 2,000 -360 Descending Winnipeg Center
10:41AM 49.8667 -97.2333 136° Southeast 160 184 1,700 -300 Descending Winnipeg Center